George Bush Intercontinental Houston Airport
KIAH : now visible

Airfield :











YOU CAN JOIN US ON...

 
LOGIN :

Register | Disclaimer

   EN    FR    IT 

 









Legend :    VFR   Marginal VFR   IFR   Intensive IFR   Very Intensive IFR
Visi :
Ceiling :
>= 8 km
>= 3000ft
5 to 8 km
1000 to 3000 ft
1500m to 5 km
500 to 1000 ft
800 to 1500m
200 to 500 ft
< 800m
< 200 ft
Symbols :   Thunderstorms  Fog  Heavy snow  Heavy precipitations  Wind > 20 kt







- Airport Elevation : 97 ft
- IATA code : IAH


KIAH - George Bush Intercontinental Houston

CURRENT METAR :
  • 160553Z 35003KT 10SM FEW120 SCT250 24/22 A2999 RMK AO2 SLP154 T02440217 10300 20244 403560239 53002 $

EXPIRED METARs :
  • 160453Z 00000KT 10SM FEW070 FEW110 SCT250 26/22 A2998 RMK AO2 SLP152 T02560217 $
  • 160353Z 18003KT 10SM FEW100 SCT250 26/22 A2998 RMK AO2 SLP152 T02610217 $

TAF KIAH
Valid from the 16 at 06:00 until the 17 at 12:00 UTC


160520Z 1606/1712 VRB03KT P6SM FEW050 FEW100
FM161500 07011KT P6SM SCT030
FM161800 09013KT P6SM VCSH SCT050 SCT150
FM170200 10009KT P6SM SCT040 SCT120
FM170900 09006KT P6SM VCSH SCT030 BKN120
No reported NOTAMs for that airfield.



MET'MAP, your aeronautical weather chart ! - Copyright ORBIFLY December 2007 - Disclaimer

ORBIFLY MET'MAP TEAM :

Programming & Development : Alexandra Zaïnal
Concept & Development : Baudouin d'Aumeries
Co-Development & Prog : Marc-Olivier Méhu
Technical & hardware support : Manuel Goepfert

Contact : metmap@orbifly.com




SOURCES & CREDITS :

   NOAA       Earth
Advisory